Time;durP1;ratioP1;P1;durP2;ratioP2;P2;SDS_P1;SDS_P2;PMS_P1;PMS_P2;Temp;Humidity;BMP_temperature;BMP_pressure;BME280_temperature;BME280_humidity;BME280_pressure;Samples;Min_cycle;Max_cycle;Signal;HPM_P1;HPM_P2
2023/01/09 00:00:23;;;;;;;14.32;12.93;;;22.20;79.80;;;;;;6206046;28;88659;-66
2023/01/09 00:03:25;;;;;;;15.27;13.68;;;22.20;79.90;;;;;;6205789;28;89022;-66
2023/01/09 00:06:27;;;;;;;15.32;13.82;;;22.20;79.80;;;;;;6193777;28;89191;-66
2023/01/09 00:09:31;;;;;;;15.27;13.77;;;22.20;79.80;;;;;;6203514;28;90006;-66
2023/01/09 00:12:34;;;;;;;15.52;13.93;;;22.10;79.80;;;;;;6204837;28;89086;-66
2023/01/09 00:15:36;;;;;;;15.20;13.68;;;22.10;79.80;;;;;;6200724;28;88033;-66
2023/01/09 00:18:38;;;;;;;16.20;14.52;;;22.10;79.90;;;;;;6204422;28;89033;-66
2023/01/09 00:21:40;;;;;;;15.88;14.27;;;22.10;79.80;;;;;;6205928;28;87971;-66
2023/01/09 00:24:43;;;;;;;15.98;14.38;;;22.10;79.90;;;;;;6205261;28;89140;-67
2023/01/09 00:27:45;;;;;;;17.17;15.48;;;22.10;79.90;;;;;;6205021;28;89444;-66
2023/01/09 00:30:56;;;;;;;17.10;15.40;;;22.10;80.00;;;;;;6205419;28;88261;-67
2023/01/09 00:34:01;;;;;;;17.70;15.90;;;22.00;79.80;;;;;;6204685;28;89131;-66
2023/01/09 00:37:03;;;;;;;16.80;15.20;;;22.10;80.00;;;;;;6204978;28;89458;-66
2023/01/09 00:40:07;;;;;;;17.15;15.45;;;22.10;80.00;;;;;;6202351;28;88934;-66
2023/01/09 00:43:09;;;;;;;17.67;15.82;;;22.00;79.80;;;;;;6193905;28;88813;-66
2023/01/09 00:46:12;;;;;;;17.48;15.77;;;22.00;79.80;;;;;;6184810;28;89087;-66
2023/01/09 00:49:15;;;;;;;17.77;16.02;;;22.10;79.80;;;;;;6194178;28;89058;-66
2023/01/09 00:52:18;;;;;;;18.35;16.52;;;22.00;79.80;;;;;;6188897;28;89265;-66
2023/01/09 00:55:21;;;;;;;17.70;15.95;;;22.00;79.80;;;;;;6203259;28;88233;-66
2023/01/09 00:58:23;;;;;;;17.05;15.35;;;22.00;79.90;;;;;;6205093;28;88138;-66
2023/01/09 01:01:25;;;;;;;17.27;15.57;;;22.00;79.80;;;;;;6205391;28;88338;-66
2023/01/09 01:07:47;;;;;;;17.60;15.90;;;22.00;79.90;;;;;;6203495;28;87298;-66
2023/01/09 01:10:50;;;;;;;17.00;15.30;;;22.00;79.80;;;;;;6196364;28;91063;-66
2023/01/09 01:13:53;;;;;;;17.30;15.60;;;21.90;79.80;;;;;;6197908;28;88033;-66
2023/01/09 01:16:55;;;;;;;17.05;15.35;;;21.90;79.80;;;;;;6204245;28;89143;-66
2023/01/09 01:19:57;;;;;;;17.23;15.52;;;21.90;79.80;;;;;;6204052;28;89112;-66
2023/01/09 01:22:59;;;;;;;17.38;15.68;;;21.90;79.80;;;;;;6206101;28;88997;-66
2023/01/09 01:26:06;;;;;;;17.15;15.45;;;21.90;79.80;;;;;;6208688;28;89214;-66
2023/01/09 01:29:08;;;;;;;16.90;15.23;;;21.90;79.80;;;;;;6208869;28;89114;-66
2023/01/09 01:32:11;;;;;;;16.98;15.27;;;21.90;79.80;;;;;;6207610;28;88567;-66
2023/01/09 01:35:13;;;;;;;16.00;14.40;;;21.90;79.80;;;;;;6207815;28;89356;-66
2023/01/09 01:38:15;;;;;;;16.92;15.27;;;21.90;79.80;;;;;;6207577;28;89108;-66
2023/01/09 01:41:28;;;;;;;17.02;15.32;;;21.90;79.80;;;;;;6207360;28;89966;-66
2023/01/09 01:45:00;;;;;;;17.17;15.40;;;21.80;79.80;;;;;;6205660;28;89183;-66
2023/01/09 01:48:05;;;;;;;16.60;15.00;;;21.90;79.80;;;;;;6208598;28;89102;-66
2023/01/09 01:51:09;;;;;;;16.48;14.88;;;21.80;79.80;;;;;;6208004;28;87893;-66
2023/01/09 01:54:16;;;;;;;16.52;14.82;;;21.80;79.80;;;;;;6207370;28;89067;-66
2023/01/09 01:57:19;;;;;;;16.13;14.52;;;21.80;79.80;;;;;;6205812;28;88468;-66
2023/01/09 02:00:27;;;;;;;16.60;14.93;;;21.80;79.70;;;;;;6198338;28;89433;-66
2023/01/09 02:03:29;;;;;;;16.30;14.70;;;21.80;79.80;;;;;;6208698;28;88629;-66
2023/01/09 02:06:34;;;;;;;16.25;14.65;;;21.80;79.80;;;;;;6207326;28;89074;-66
2023/01/09 02:09:39;;;;;;;16.75;15.05;;;21.80;79.80;;;;;;6206709;28;89048;-67
2023/01/09 02:12:42;;;;;;;15.93;14.32;;;21.80;79.80;;;;;;6205775;28;90015;-66
2023/01/09 02:15:56;;;;;;;16.85;15.15;;;21.80;79.80;;;;;;6200533;28;89179;-66
2023/01/09 02:19:06;;;;;;;15.70;14.10;;;21.80;79.80;;;;;;6203451;28;89148;-66
2023/01/09 02:22:16;;;;;;;15.52;13.98;;;21.70;79.70;;;;;;6207840;28;88997;-66
2023/01/09 02:25:52;;;;;;;16.05;14.45;;;21.80;79.80;;;;;;6200249;28;89066;-66
2023/01/09 02:29:34;;;;;;;15.68;14.07;;;21.80;79.80;;;;;;6196628;28;90194;-66
2023/01/09 02:32:57;;;;;;;15.32;13.82;;;21.80;79.80;;;;;;6204900;28;89143;-66
2023/01/09 02:36:11;;;;;;;15.45;13.90;;;21.70;79.70;;;;;;6194728;28;88285;-66
2023/01/09 02:39:24;;;;;;;14.90;13.40;;;21.70;79.70;;;;;;6199917;28;89400;-66
2023/01/09 02:42:26;;;;;;;14.65;13.15;;;21.70;79.70;;;;;;6205903;28;88280;-66
2023/01/09 02:45:28;;;;;;;15.02;13.52;;;21.70;79.70;;;;;;6206121;28;89919;-66
2023/01/09 02:48:32;;;;;;;14.40;13.00;;;21.70;79.80;;;;;;6206755;28;88998;-66
2023/01/09 02:51:40;;;;;;;14.50;13.00;;;21.70;79.80;;;;;;6207661;28;87976;-66
2023/01/09 02:54:53;;;;;;;14.55;13.10;;;21.70;79.80;;;;;;6205876;28;89250;-66
2023/01/09 02:58:06;;;;;;;14.98;13.57;;;21.70;79.80;;;;;;6198134;28;89053;-66
2023/01/09 03:01:20;;;;;;;14.43;13.07;;;21.70;79.80;;;;;;6189559;28;89070;-66
2023/01/09 03:04:32;;;;;;;14.32;12.90;;;21.70;79.80;;;;;;6205952;28;88897;-66
2023/01/09 03:07:40;;;;;;;14.00;12.65;;;21.60;79.80;;;;;;6206151;28;88185;-66
2023/01/09 03:10:48;;;;;;;14.02;12.63;;;21.70;79.80;;;;;;6195217;28;89115;-66
2023/01/09 03:13:53;;;;;;;13.85;12.45;;;21.60;79.80;;;;;;6204558;28;89152;-66
2023/01/09 03:17:00;;;;;;;14.07;12.68;;;21.60;79.80;;;;;;6206600;28;91484;-66
2023/01/09 03:20:07;;;;;;;13.80;12.40;;;21.60;79.80;;;;;;6195613;28;89076;-66
2023/01/09 03:23:09;;;;;;;14.00;12.60;;;21.60;79.80;;;;;;6189565;28;89848;-66
2023/01/09 03:26:11;;;;;;;13.50;12.15;;;21.60;80.70;;;;;;6196762;28;89008;-66
2023/01/09 03:29:13;;;;;;;13.55;12.25;;;21.60;79.80;;;;;;6198607;28;89039;-66
2023/01/09 03:32:15;;;;;;;13.18;11.88;;;21.60;79.80;;;;;;6205637;28;89592;-67
2023/01/09 03:35:19;;;;;;;13.50;12.20;;;21.60;79.80;;;;;;6206021;28;89204;-66
2023/01/09 03:38:21;;;;;;;13.20;11.90;;;21.60;79.80;;;;;;6195833;28;88350;-66
2023/01/09 03:41:23;;;;;;;12.95;11.65;;;21.60;79.80;;;;;;6205921;28;89108;-66
2023/01/09 03:44:25;;;;;;;12.35;11.15;;;21.60;79.80;;;;;;6198781;28;87903;-66
2023/01/09 03:47:27;;;;;;;12.60;11.40;;;21.60;79.80;;;;;;6205765;28;90269;-66
2023/01/09 03:50:30;;;;;;;13.10;11.80;;;21.60;79.80;;;;;;6206030;28;89047;-66
2023/01/09 03:53:32;;;;;;;12.57;11.38;;;21.50;79.80;;;;;;6206137;28;87962;-66
2023/01/09 03:56:34;;;;;;;12.60;11.40;;;21.50;79.80;;;;;;6205227;28;89185;-66
2023/01/09 03:59:36;;;;;;;12.57;11.20;;;21.50;79.80;;;;;;6205838;28;89384;-66
2023/01/09 04:02:38;;;;;;;12.20;11.00;;;21.60;79.80;;;;;;6205174;28;89465;-66
2023/01/09 04:05:43;;;;;;;11.60;10.50;;;21.50;79.80;;;;;;6206796;28;87765;-67
2023/01/09 04:08:45;;;;;;;12.02;10.82;;;21.50;79.80;;;;;;6206165;28;88312;-66
2023/01/09 04:11:47;;;;;;;12.77;11.57;;;21.50;79.80;;;;;;6197202;28;87934;-66
2023/01/09 04:14:49;;;;;;;11.90;10.70;;;21.50;79.80;;;;;;6206179;28;89060;-66
2023/01/09 04:17:51;;;;;;;11.57;10.48;;;21.50;79.80;;;;;;6180610;28;93098;-67
2023/01/09 04:20:55;;;;;;;11.13;10.07;;;21.50;79.80;;;;;;6190287;28;89099;-66
2023/01/09 04:23:57;;;;;;;12.05;10.85;;;21.50;79.80;;;;;;6205202;28;89144;-66
2023/01/09 04:26:59;;;;;;;11.27;10.10;;;21.50;79.90;;;;;;6205469;28;89175;-66
2023/01/09 04:30:01;;;;;;;11.38;10.27;;;21.50;79.90;;;;;;6204529;28;87990;-66
2023/01/09 04:33:04;;;;;;;11.32;10.23;;;21.50;79.90;;;;;;6204596;28;89142;-66
2023/01/09 04:36:08;;;;;;;11.65;10.55;;;21.50;79.90;;;;;;6204024;28;89141;-66
2023/01/09 04:39:10;;;;;;;10.70;9.60;;;21.50;79.90;;;;;;6205863;28;88255;-66
2023/01/09 04:42:12;;;;;;;10.77;9.77;;;21.50;80.00;;;;;;6203844;28;88981;-67
2023/01/09 04:45:16;;;;;;;10.90;9.90;;;21.50;79.90;;;;;;6199128;28;89156;-66
2023/01/09 04:48:18;;;;;;;10.20;9.20;;;21.50;79.90;;;;;;6205558;28;90112;-66
2023/01/09 04:51:22;;;;;;;10.68;9.60;;;21.50;79.80;;;;;;6193007;28;89188;-66
2023/01/09 04:54:24;;;;;;;9.98;8.98;;;21.60;79.80;;;;;;6205440;28;89105;-67
2023/01/09 04:57:26;;;;;;;10.23;9.23;;;21.50;79.70;;;;;;6208784;28;89225;-67
2023/01/09 05:00:28;;;;;;;10.63;9.63;;;21.60;80.60;;;;;;6209922;28;87732;-67
2023/01/09 05:03:30;;;;;;;9.68;8.77;;;21.60;79.70;;;;;;6210424;28;89333;-67
2023/01/09 05:06:34;;;;;;;9.65;8.73;;;21.60;79.60;;;;;;6210804;28;89284;-66
2023/01/09 05:09:36;;;;;;;9.75;8.85;;;21.60;79.60;;;;;;6210300;28;87283;-66
2023/01/09 05:12:38;;;;;;;10.00;9.00;;;21.60;79.50;;;;;;6201627;28;88936;-67
2023/01/09 05:15:40;;;;;;;9.25;8.35;;;21.70;79.50;;;;;;6207715;28;88963;-67
2023/01/09 05:18:42;;;;;;;8.82;8.02;;;21.70;79.40;;;;;;6203699;28;90121;-66
2023/01/09 05:21:46;;;;;;;9.70;8.73;;;21.70;79.40;;;;;;6208947;28;89025;-66
2023/01/09 05:24:48;;;;;;;9.68;8.73;;;21.70;79.40;;;;;;6209801;28;89063;-66
2023/01/09 05:27:50;;;;;;;8.63;7.82;;;21.80;79.40;;;;;;6210746;28;89199;-66
2023/01/09 05:30:52;;;;;;;8.75;7.95;;;21.70;79.30;;;;;;6208905;28;89394;-66
2023/01/09 05:33:54;;;;;;;11.02;8.35;;;21.80;79.30;;;;;;6209529;28;89227;-66
2023/01/09 05:36:58;;;;;;;8.98;8.18;;;21.80;79.30;;;;;;6208168;28;89064;-66
2023/01/09 05:40:00;;;;;;;8.50;7.70;;;21.80;79.20;;;;;;6210135;28;87184;-66
2023/01/09 05:43:02;;;;;;;8.68;7.88;;;21.80;79.30;;;;;;6209600;28;89794;-66
2023/01/09 05:46:04;;;;;;;9.02;8.20;;;21.90;79.20;;;;;;6194021;28;88011;-66
2023/01/09 05:49:06;;;;;;;8.88;8.02;;;21.80;79.10;;;;;;6209259;28;90087;-67
2023/01/09 05:52:09;;;;;;;8.52;7.72;;;21.90;79.20;;;;;;6208098;28;89132;-66
2023/01/09 05:55:12;;;;;;;8.40;7.60;;;21.90;79.10;;;;;;6208993;28;89173;-66
2023/01/09 05:58:14;;;;;;;7.97;7.22;;;21.90;79.10;;;;;;6209144;28;88935;-66
2023/01/09 06:01:16;;;;;;;7.95;7.25;;;21.90;79.10;;;;;;6207946;28;89072;-66
2023/01/09 06:04:18;;;;;;;8.30;7.50;;;21.90;79.10;;;;;;6207991;28;89040;-66
2023/01/09 06:07:22;;;;;;;7.90;7.20;;;21.90;79.10;;;;;;6208940;28;89037;-66
2023/01/09 06:10:24;;;;;;;7.70;7.00;;;21.90;79.10;;;;;;6209178;28;88314;-66
2023/01/09 06:13:26;;;;;;;7.90;7.20;;;22.00;79.10;;;;;;6207763;28;87848;-66
2023/01/09 06:16:28;;;;;;;7.85;7.15;;;21.90;79.10;;;;;;6208078;28;89166;-66
2023/01/09 06:19:30;;;;;;;7.75;7.05;;;22.00;79.00;;;;;;6205997;28;90286;-66
2023/01/09 06:22:34;;;;;;;7.40;6.70;;;21.90;79.00;;;;;;6208087;28;89246;-66
2023/01/09 06:25:36;;;;;;;7.80;7.10;;;22.00;79.00;;;;;;6201405;28;89159;-66
2023/01/09 06:28:38;;;;;;;7.90;7.15;;;22.00;79.00;;;;;;6203935;28;88934;-66
2023/01/09 06:31:40;;;;;;;7.70;7.00;;;22.00;78.90;;;;;;6206635;28;89040;-66
2023/01/09 06:34:42;;;;;;;7.72;7.03;;;22.00;78.90;;;;;;6208298;28;89186;-66
2023/01/09 06:37:46;;;;;;;7.95;7.25;;;22.00;78.90;;;;;;6208516;28;89119;-66
2023/01/09 06:40:49;;;;;;;7.45;6.70;;;22.00;78.90;;;;;;6208951;28;88357;-66
2023/01/09 06:43:51;;;;;;;7.40;6.70;;;22.00;78.90;;;;;;6199710;28;88753;-67
2023/01/09 06:46:53;;;;;;;8.00;6.47;;;22.00;78.90;;;;;;6208066;28;87979;-66
2023/01/09 06:49:56;;;;;;;6.88;6.28;;;22.00;78.90;;;;;;6206670;28;89973;-66
2023/01/09 06:52:59;;;;;;;7.53;6.82;;;22.10;78.90;;;;;;6208326;28;89068;-66
2023/01/09 06:56:02;;;;;;;7.45;6.72;;;22.00;78.90;;;;;;6194464;28;89064;-66
2023/01/09 06:59:04;;;;;;;7.22;6.53;;;22.00;78.90;;;;;;6207888;28;89230;-67
2023/01/09 07:02:06;;;;;;;7.28;6.57;;;22.10;79.00;;;;;;6208178;28;88942;-66
2023/01/09 07:05:10;;;;;;;7.15;6.47;;;22.00;78.90;;;;;;6207951;28;89599;-67
2023/01/09 07:08:14;;;;;;;6.70;6.00;;;22.10;79.00;;;;;;6208425;28;89239;-66
2023/01/09 07:11:16;;;;;;;6.80;6.20;;;22.10;79.10;;;;;;6207840;28;88191;-67
2023/01/09 07:14:18;;;;;;;6.60;6.00;;;22.10;80.00;;;;;;6207518;28;89092;-66
2023/01/09 07:17:20;;;;;;;6.60;6.00;;;22.10;79.00;;;;;;6207129;28;90506;-66
2023/01/09 07:20:22;;;;;;;6.63;6.03;;;22.10;79.00;;;;;;6205137;28;90047;-66
2023/01/09 07:23:26;;;;;;;7.15;5.95;;;22.10;79.00;;;;;;6206095;28;89022;-66
2023/01/09 07:26:28;;;;;;;6.93;6.22;;;22.10;79.00;;;;;;6205082;28;89021;-66
2023/01/09 07:29:30;;;;;;;6.60;6.00;;;22.10;79.10;;;;;;6207032;28;89074;-66
2023/01/09 07:32:32;;;;;;;6.25;5.65;;;22.10;79.10;;;;;;6207794;28;89215;-66
2023/01/09 07:35:35;;;;;;;5.93;5.43;;;22.10;79.10;;;;;;6207225;28;89176;-66
2023/01/09 07:38:38;;;;;;;6.65;6.05;;;22.10;79.00;;;;;;6206368;28;89008;-66
2023/01/09 07:41:40;;;;;;;6.25;5.65;;;22.10;79.10;;;;;;6207676;28;88418;-66
2023/01/09 07:44:43;;;;;;;6.07;5.47;;;22.10;79.10;;;;;;6207440;28;87826;-66
2023/01/09 07:47:45;;;;;;;6.25;5.65;;;22.20;79.10;;;;;;6200875;28;89104;-66
2023/01/09 07:50:47;;;;;;;6.20;5.60;;;22.20;79.10;;;;;;6206288;28;90121;-66
2023/01/09 07:53:50;;;;;;;5.95;5.45;;;22.20;79.10;;;;;;6193686;28;89158;-66
2023/01/09 07:56:52;;;;;;;6.30;5.80;;;22.10;79.10;;;;;;6193596;28;88747;-66
2023/01/09 07:59:54;;;;;;;5.55;5.05;;;22.20;79.10;;;;;;6206838;28;87825;-67
2023/01/09 08:02:56;;;;;;;5.72;5.22;;;22.10;79.00;;;;;;6207085;28;89206;-66
2023/01/09 08:05:58;;;;;;;5.63;5.13;;;22.20;79.10;;;;;;6206751;28;89106;-67
2023/01/09 08:09:02;;;;;;;5.75;5.25;;;22.20;79.10;;;;;;6206093;28;89088;-67
2023/01/09 08:12:04;;;;;;;5.50;5.00;;;22.20;79.10;;;;;;6202586;28;88309;-66
2023/01/09 08:15:07;;;;;;;5.47;4.97;;;22.20;79.10;;;;;;6186184;28;89184;-66
2023/01/09 08:18:09;;;;;;;5.47;4.97;;;22.20;79.10;;;;;;6207088;28;89361;-66
2023/01/09 08:21:12;;;;;;;5.63;5.13;;;22.20;79.10;;;;;;6193711;28;90486;-67
2023/01/09 08:24:16;;;;;;;5.15;4.70;;;22.20;79.10;;;;;;6204716;28;89101;-66
2023/01/09 08:27:18;;;;;;;5.28;4.78;;;22.20;79.10;;;;;;6206015;28;89319;-66
2023/01/09 08:30:20;;;;;;;5.40;4.90;;;22.20;79.10;;;;;;6192867;28;89092;-67
2023/01/09 08:33:23;;;;;;;5.18;4.68;;;22.20;79.10;;;;;;6197776;28;89055;-67
2023/01/09 08:36:25;;;;;;;5.10;4.70;;;22.20;79.10;;;;;;6197833;28;89178;-67
2023/01/09 08:39:28;;;;;;;5.35;4.85;;;22.20;79.10;;;;;;6196918;28;89012;-67
2023/01/09 08:49:09;;;;;;;5.28;4.78;;;22.20;79.10;;;;;;6200911;28;87304;-67
2023/01/09 08:52:12;;;;;;;5.05;4.65;;;22.20;79.10;;;;;;6210259;28;90008;-67
2023/01/09 08:55:16;;;;;;;4.80;4.40;;;22.20;79.10;;;;;;6209812;28;89229;-66
2023/01/09 08:58:18;;;;;;;4.78;4.38;;;22.20;79.10;;;;;;6208444;28;87934;-66
2023/01/09 09:01:20;;;;;;;5.13;4.63;;;22.20;79.10;;;;;;6209863;28;89086;-66
2023/01/09 09:04:22;;;;;;;4.78;4.38;;;22.20;79.10;;;;;;6210151;28;89140;-66
2023/01/09 09:07:26;;;;;;;4.68;4.28;;;22.20;79.10;;;;;;6209241;28;89162;-66
2023/01/09 09:10:30;;;;;;;4.32;3.92;;;22.20;79.10;;;;;;6209189;28;88996;-67
2023/01/09 09:13:32;;;;;;;4.75;4.25;;;22.20;79.10;;;;;;6209914;28;88107;-66
2023/01/09 09:16:34;;;;;;;4.75;4.35;;;22.20;79.10;;;;;;6208121;28;89168;-66
2023/01/09 09:19:38;;;;;;;4.45;4.05;;;22.30;79.10;;;;;;6198900;28;89073;-66
2023/01/09 09:22:40;;;;;;;4.43;3.97;;;22.20;79.10;;;;;;6207658;28;89994;-66
2023/01/09 09:25:43;;;;;;;4.25;3.88;;;22.20;79.00;;;;;;6208017;28;87971;-67
2023/01/09 09:28:46;;;;;;;4.38;3.97;;;22.30;79.10;;;;;;6209655;28;89163;-66
2023/01/09 09:31:48;;;;;;;4.50;4.10;;;22.20;79.10;;;;;;6209560;28;89086;-66
2023/01/09 09:34:50;;;;;;;4.20;3.80;;;22.30;79.10;;;;;;6209133;28;89491;-66
2023/01/09 09:37:56;;;;;;;4.43;4.03;;;22.30;79.10;;;;;;6209490;28;89122;-67
2023/01/09 09:45:01;;;;;;;4.18;3.78;;;22.20;79.00;;;;;;6198853;28;86475;-66
2023/01/09 09:48:18;;;;;;;4.78;3.78;;;22.30;79.10;;;;;;6203906;28;89418;-66
2023/01/09 09:51:39;;;;;;;3.95;3.63;;;22.30;79.10;;;;;;6209052;28;89146;-66
2023/01/09 09:54:47;;;;;;;3.67;3.38;;;22.30;79.10;;;;;;6208219;28;90361;-66
2023/01/09 09:57:52;;;;;;;4.10;3.70;;;22.30;79.10;;;;;;6209241;28;88001;-67
2023/01/09 10:00:57;;;;;;;3.90;3.60;;;22.30;79.10;;;;;;6208898;28;89127;-66
2023/01/09 10:04:01;;;;;;;4.07;3.60;;;22.30;79.10;;;;;;6208348;28;88150;-66
2023/01/09 10:07:08;;;;;;;3.90;3.60;;;22.30;79.10;;;;;;6195370;28;89317;-66
2023/01/09 10:10:16;;;;;;;3.90;3.50;;;22.30;79.20;;;;;;6195687;28;89064;-66
2023/01/09 10:17:00;;;;;;;3.58;3.28;;;22.30;79.10;;;;;;6208548;28;87376;-67
2023/01/09 10:20:34;;;;;;;3.67;3.38;;;22.30;79.10;;;;;;6205635;28;89551;-66
2023/01/09 10:24:27;;;;;;;3.30;3.00;;;22.30;79.10;;;;;;6191504;28;88992;-66
2023/01/09 10:27:43;;;;;;;3.70;3.33;;;22.30;79.10;;;;;;6115355;28;89092;-66
2023/01/09 10:30:50;;;;;;;3.53;3.22;;;22.30;79.00;;;;;;6208598;28;89448;-66
2023/01/09 10:34:02;;;;;;;3.40;3.10;;;22.30;79.10;;;;;;6186802;28;88639;-67
2023/01/09 10:37:10;;;;;;;3.50;3.20;;;22.30;79.10;;;;;;6192479;28;89201;-67
2023/01/09 10:40:20;;;;;;;3.55;3.25;;;22.40;79.10;;;;;;6206815;28;89066;-67
2023/01/09 10:43:29;;;;;;;3.45;3.15;;;22.30;79.10;;;;;;6188813;28;89060;-66
2023/01/09 10:46:39;;;;;;;3.20;2.90;;;22.30;79.10;;;;;;6195237;28;88145;-66
2023/01/09 10:49:41;;;;;;;3.10;2.80;;;22.30;79.10;;;;;;6208650;28;88505;-66
2023/01/09 10:52:44;;;;;;;2.95;2.63;;;22.30;79.10;;;;;;6203071;28;89363;-66
2023/01/09 10:55:47;;;;;;;3.35;3.05;;;22.30;79.10;;;;;;6183347;28;89021;-67
2023/01/09 10:58:50;;;;;;;3.28;2.97;;;22.30;79.10;;;;;;6196248;28;89978;-66
2023/01/09 11:01:54;;;;;;;3.00;2.72;;;22.30;79.10;;;;;;6197021;28;87989;-66
2023/01/09 11:04:56;;;;;;;3.30;3.00;;;22.30;79.00;;;;;;6208124;28;89159;-67
2023/01/09 11:08:04;;;;;;;3.25;2.95;;;22.30;79.10;;;;;;6195071;28;89130;-66
2023/01/09 11:11:06;;;;;;;3.20;2.90;;;22.30;79.00;;;;;;6195111;28;89126;-67
2023/01/09 11:14:14;;;;;;;2.80;2.60;;;22.30;79.10;;;;;;6199733;28;89366;-67
2023/01/09 11:17:20;;;;;;;2.80;2.60;;;22.30;79.00;;;;;;6203083;28;88807;-67
2023/01/09 11:20:26;;;;;;;2.67;2.47;;;22.30;79.00;;;;;;6207012;28;88622;-66
2023/01/09 11:23:31;;;;;;;3.17;2.88;;;22.30;79.00;;;;;;6207658;28;89130;-66
2023/01/09 11:26:33;;;;;;;2.70;2.50;;;22.30;79.00;;;;;;6207302;28;89005;-66
2023/01/09 11:29:36;;;;;;;2.60;2.40;;;22.30;79.00;;;;;;6206965;28;89872;-67
2023/01/09 11:32:40;;;;;;;2.88;2.67;;;22.30;79.00;;;;;;6183631;28;88794;-67
2023/01/09 11:35:57;;;;;;;2.75;2.55;;;22.30;79.00;;;;;;6207423;28;89129;-66
2023/01/09 11:39:01;;;;;;;2.70;2.50;;;22.30;79.00;;;;;;6200541;28;89045;-66
2023/01/09 11:42:06;;;;;;;2.58;2.38;;;22.30;79.00;;;;;;6204410;28;89014;-67
2023/01/09 11:45:15;;;;;;;2.70;2.50;;;22.30;79.00;;;;;;6197645;28;89140;-67
2023/01/09 11:48:33;;;;;;;2.60;2.40;;;22.30;79.00;;;;;;6203902;28;88736;-66
2023/01/09 11:51:35;;;;;;;2.60;2.40;;;22.30;79.00;;;;;;6193854;28;87309;-66
2023/01/09 11:54:41;;;;;;;2.75;2.55;;;22.30;78.90;;;;;;6206210;28;89123;-66
2023/01/09 11:57:44;;;;;;;2.38;2.17;;;22.30;79.00;;;;;;6194552;28;88985;-66
2023/01/09 12:00:53;;;;;;;2.35;2.15;;;22.30;79.00;;;;;;6206648;28;90427;-67
2023/01/09 12:04:23;;;;;;;2.60;2.40;;;22.40;79.10;;;;;;6206507;28;89137;-66
2023/01/09 12:07:43;;;;;;;2.63;2.42;;;22.30;79.00;;;;;;6193283;28;88055;-66
2023/01/09 12:11:03;;;;;;;2.72;2.53;;;22.30;79.00;;;;;;6187917;28;88978;-66
2023/01/09 12:14:30;;;;;;;2.40;2.20;;;22.40;79.10;;;;;;6189071;28;89057;-66
2023/01/09 12:17:48;;;;;;;2.88;2.65;;;22.40;79.00;;;;;;6206725;28;89212;-66
2023/01/09 12:21:06;;;;;;;2.40;2.20;;;22.30;78.90;;;;;;6205291;28;89200;-67
2023/01/09 12:24:37;;;;;;;2.55;2.35;;;22.40;79.00;;;;;;6206932;28;88357;-67
2023/01/09 12:28:06;;;;;;;2.40;2.20;;;22.40;79.00;;;;;;6206908;28;89095;-66
2023/01/09 12:31:20;;;;;;;2.30;2.10;;;22.30;78.90;;;;;;6195190;28;88996;-67
2023/01/09 12:34:51;;;;;;;2.40;2.20;;;22.40;79.00;;;;;;6194947;28;90077;-67
2023/01/09 12:38:20;;;;;;;2.40;2.20;;;22.40;79.00;;;;;;6196060;28;89018;-68
2023/01/09 12:41:48;;;;;;;2.25;2.05;;;22.40;79.10;;;;;;6205568;28;89065;-67
2023/01/09 12:44:55;;;;;;;2.25;2.05;;;22.30;78.90;;;;;;6204624;28;88040;-67
2023/01/09 12:48:03;;;;;;;2.20;2.03;;;22.40;78.90;;;;;;6201963;28;90273;-67
2023/01/09 12:51:16;;;;;;;2.20;2.00;;;22.40;79.00;;;;;;6184936;28;89114;-67
2023/01/09 12:54:27;;;;;;;2.50;2.30;;;22.40;79.00;;;;;;6205549;28;89118;-67
2023/01/09 12:57:35;;;;;;;2.53;2.33;;;22.40;79.00;;;;;;6193261;28;87544;-67
2023/01/09 13:00:42;;;;;;;2.50;2.30;;;22.40;78.90;;;;;;6205783;28;89440;-67
2023/01/09 13:03:52;;;;;;;2.58;2.38;;;22.40;78.90;;;;;;6204609;28;87672;-67
2023/01/09 13:06:59;;;;;;;2.30;2.10;;;22.40;78.90;;;;;;6193408;28;91000;-66
2023/01/09 13:10:09;;;;;;;2.17;1.92;;;22.40;78.90;;;;;;6206780;28;89072;-67
2023/01/09 13:13:18;;;;;;;2.22;2.05;;;22.40;78.90;;;;;;6194968;28;88862;-67
2023/01/09 13:16:25;;;;;;;2.20;2.00;;;22.50;78.90;;;;;;6192148;28;89084;-67
2023/01/09 13:19:31;;;;;;;2.13;1.95;;;22.40;78.90;;;;;;6196291;28;89081;-67
2023/01/09 13:22:33;;;;;;;2.15;2.00;;;22.40;78.90;;;;;;6209593;28;89013;-67
2023/01/09 13:25:42;;;;;;;2.20;2.00;;;22.40;78.90;;;;;;6209318;28;89061;-67
2023/01/09 13:28:49;;;;;;;1.95;1.85;;;22.40;78.90;;;;;;6208585;28;88340;-67
2023/01/09 13:32:14;;;;;;;1.92;1.80;;;22.40;78.90;;;;;;6191360;28;89095;-67
2023/01/09 13:35:16;;;;;;;1.85;1.70;;;22.50;78.90;;;;;;6204952;28;88974;-67
2023/01/09 13:38:21;;;;;;;2.08;1.98;;;22.40;78.90;;;;;;6209092;28;90331;-67
2023/01/09 13:44:47;;;;;;;1.98;1.83;;;22.40;78.90;;;;;;6199536;28;87346;-67
2023/01/09 13:48:37;;;;;;;1.70;1.60;;;22.40;78.90;;;;;;6208022;28;89186;-67
2023/01/09 13:51:58;;;;;;;2.33;2.13;;;22.40;78.90;;;;;;6121560;28;89090;-67
2023/01/09 13:55:24;;;;;;;1.92;1.70;;;22.40;78.80;;;;;;6115441;28;89089;-67
2023/01/09 13:58:28;;;;;;;2.08;1.70;;;22.40;78.80;;;;;;6198658;28;89441;-67
2023/01/09 14:01:46;;;;;;;2.10;1.92;;;22.50;78.90;;;;;;6192370;28;87090;-67
2023/01/09 14:04:48;;;;;;;2.03;1.90;;;22.40;78.80;;;;;;6201249;28;89194;-67
2023/01/09 14:07:52;;;;;;;1.85;1.75;;;22.40;78.80;;;;;;6208839;28;88053;-67
2023/01/09 14:10:57;;;;;;;1.90;1.80;;;22.40;78.80;;;;;;6208504;28;88882;-67
2023/01/09 14:14:15;;;;;;;1.90;1.80;;;22.40;78.80;;;;;;6196039;28;88446;-67
2023/01/09 14:17:23;;;;;;;1.67;1.58;;;22.40;78.90;;;;;;6197830;28;89051;-67
2023/01/09 14:20:30;;;;;;;1.60;1.50;;;22.50;78.90;;;;;;6209353;28;89247;-67
2023/01/09 14:23:36;;;;;;;1.60;1.50;;;22.40;78.80;;;;;;6200703;28;89120;-67
2023/01/09 14:26:44;;;;;;;1.70;1.60;;;22.50;78.90;;;;;;6207837;28;89073;-67
2023/01/09 14:29:47;;;;;;;1.95;1.75;;;22.50;78.80;;;;;;6206515;28;89148;-68
2023/01/09 14:32:56;;;;;;;1.60;1.50;;;22.40;78.80;;;;;;6209346;28;87639;-67
2023/01/09 14:36:09;;;;;;;1.60;1.50;;;22.50;78.80;;;;;;6184519;28;89028;-67
2023/01/09 14:39:12;;;;;;;1.73;1.63;;;22.40;78.80;;;;;;6202682;28;89400;-67
2023/01/09 14:42:21;;;;;;;1.80;1.70;;;22.50;78.80;;;;;;6201332;28;90480;-67
2023/01/09 14:45:26;;;;;;;1.73;1.60;;;22.50;78.80;;;;;;6188074;28;89101;-67
2023/01/09 14:48:31;;;;;;;1.80;1.70;;;22.40;78.80;;;;;;6199006;28;89451;-67
2023/01/09 14:51:38;;;;;;;1.77;1.67;;;22.40;78.80;;;;;;6199063;28;89392;-67
2023/01/09 14:54:42;;;;;;;1.60;1.50;;;22.40;78.80;;;;;;6198553;28;89146;-67
2023/01/09 14:57:45;;;;;;;2.00;1.80;;;22.40;78.80;;;;;;6201899;28;89167;-67
2023/01/09 15:00:53;;;;;;;1.75;1.63;;;22.50;78.80;;;;;;6201577;28;88948;-67
2023/01/09 15:04:00;;;;;;;1.70;1.60;;;22.40;78.80;;;;;;6203071;28;88431;-67
2023/01/09 15:07:03;;;;;;;1.70;1.60;;;22.40;78.80;;;;;;6207250;28;88866;-67
2023/01/09 15:10:06;;;;;;;1.60;1.50;;;22.50;78.80;;;;;;6207523;28;89225;-67
2023/01/09 15:13:15;;;;;;;1.65;1.55;;;22.50;78.80;;;;;;6207131;28;91548;-67
2023/01/09 15:16:20;;;;;;;1.70;1.60;;;22.40;78.70;;;;;;6202602;28;89142;-67
2023/01/09 15:19:22;;;;;;;1.77;1.67;;;22.50;78.80;;;;;;6207822;28;89238;-67
2023/01/09 15:22:29;;;;;;;2.10;1.90;;;22.50;78.70;;;;;;6202551;28;89178;-66
2023/01/09 15:25:32;;;;;;;1.80;1.70;;;22.50;78.70;;;;;;6202412;28;89330;-67
2023/01/09 15:28:41;;;;;;;1.85;1.70;;;22.50;78.80;;;;;;6190657;28;89066;-67
2023/01/09 15:31:47;;;;;;;1.70;1.60;;;22.50;78.70;;;;;;6200378;28;88749;-67
2023/01/09 15:34:49;;;;;;;2.00;1.90;;;22.50;78.70;;;;;;6205635;28;86981;-67
2023/01/09 15:37:53;;;;;;;1.88;1.77;;;22.50;78.70;;;;;;6197653;28;89180;-67
2023/01/09 15:41:00;;;;;;;1.90;1.70;;;22.50;78.70;;;;;;6205394;28;89087;-67
2023/01/09 15:44:03;;;;;;;1.90;1.80;;;22.50;78.70;;;;;;6195948;28;90359;-67
2023/01/09 15:47:12;;;;;;;1.70;1.60;;;22.50;78.60;;;;;;6206555;28;88732;-67
2023/01/09 15:50:15;;;;;;;1.70;1.60;;;22.50;78.60;;;;;;6206372;28;89408;-67
2023/01/09 15:53:21;;;;;;;2.15;1.90;;;22.50;78.60;;;;;;6206465;28;87885;-67
2023/01/09 15:56:25;;;;;;;2.10;1.90;;;22.50;78.60;;;;;;6204768;28;89126;-67
2023/01/09 15:59:28;;;;;;;2.10;1.92;;;22.50;78.60;;;;;;6195250;28;88005;-67
2023/01/09 16:05:56;;;;;;;1.70;1.60;;;22.50;78.60;;;;;;6196260;28;86279;-67
2023/01/09 16:09:00;;;;;;;1.88;1.70;;;22.40;78.60;;;;;;6182809;28;89096;-67
2023/01/09 16:12:03;;;;;;;1.63;1.52;;;22.50;78.60;;;;;;6206871;28;90165;-67
2023/01/09 16:15:06;;;;;;;2.08;1.88;;;22.50;78.60;;;;;;6195868;28;90065;-67
2023/01/09 16:18:23;;;;;;;1.77;1.67;;;22.50;78.60;;;;;;6203612;28;89205;-67
2023/01/09 16:21:33;;;;;;;2.00;1.90;;;22.50;78.60;;;;;;6206721;28;89090;-67
2023/01/09 16:24:39;;;;;;;1.80;1.70;;;22.50;78.60;;;;;;6206271;28;87880;-67